Time;durP1;ratioP1;P1;durP2;ratioP2;P2;SDS_P1;SDS_P2;PMS_P1;PMS_P2;Temp;Humidity;BMP_temperature;BMP_pressure;BME280_temperature;BME280_humidity;BME280_pressure;Samples;Min_cycle;Max_cycle;Signal;HPM_P1;HPM_P2
2022/08/18 00:00:00;;;;;;;63.80;22.13;;;21.70;99.90;;;;;;6139501;29;20307;-66
2022/08/18 00:03:08;;;;;;;53.30;21.75;;;21.70;99.90;;;;;;6139229;29;20290;-65
2022/08/18 00:06:34;;;;;;;57.60;21.65;;;21.70;99.90;;;;;;6139940;29;20275;-65
2022/08/18 00:09:41;;;;;;;71.63;22.88;;;21.70;99.90;;;;;;6139598;29;20303;-66
2022/08/18 00:12:47;;;;;;;63.67;22.23;;;21.60;99.90;;;;;;6180811;28;20266;-66
2022/08/18 00:15:52;;;;;;;41.28;22.63;;;21.60;99.90;;;;;;6187312;28;20445;-65
2022/08/18 00:18:59;;;;;;;46.90;22.25;;;21.60;99.90;;;;;;6186758;28;20601;-65
2022/08/18 00:22:04;;;;;;;49.63;22.30;;;21.60;99.90;;;;;;6187445;28;20604;-65
2022/08/18 00:25:14;;;;;;;66.88;22.45;;;21.60;99.90;;;;;;6187034;28;20383;-67
2022/08/18 00:28:20;;;;;;;74.13;21.45;;;21.60;99.90;;;;;;6187111;28;20293;-66
2022/08/18 00:31:28;;;;;;;55.72;21.90;;;21.60;99.90;;;;;;6186992;28;20282;-65
2022/08/18 00:34:33;;;;;;;57.67;21.65;;;21.60;99.90;;;;;;6186854;28;20306;-66
2022/08/18 00:37:38;;;;;;;49.55;23.25;;;21.50;99.90;;;;;;6187517;28;20274;-65
2022/08/18 00:40:47;;;;;;;50.67;23.17;;;21.50;99.90;;;;;;6186555;28;20305;-65
2022/08/18 00:43:57;;;;;;;43.08;21.92;;;21.40;99.90;;;;;;6186516;28;20640;-65
2022/08/18 00:47:02;;;;;;;49.50;22.90;;;21.40;99.90;;;;;;6187150;28;20370;-66
2022/08/18 00:50:09;;;;;;;34.28;21.98;;;21.30;99.90;;;;;;6186492;28;20298;-66
2022/08/18 00:53:22;;;;;;;42.50;22.95;;;21.30;99.90;;;;;;6188032;28;20597;-65
2022/08/18 00:56:34;;;;;;;33.20;22.25;;;21.30;99.90;;;;;;6191189;28;20275;-65
2022/08/18 00:59:45;;;;;;;32.88;23.15;;;21.40;99.90;;;;;;6190855;28;20293;-67
2022/08/18 01:02:56;;;;;;;31.13;22.25;;;21.30;99.90;;;;;;6190786;28;20297;-66
2022/08/18 01:06:05;;;;;;;30.75;22.45;;;21.40;99.90;;;;;;6191128;28;20601;-66
2022/08/18 01:09:11;;;;;;;29.67;21.95;;;21.30;99.90;;;;;;6191103;28;20298;-66
2022/08/18 01:12:17;;;;;;;28.08;21.25;;;21.20;99.90;;;;;;6174419;28;20582;-66
2022/08/18 01:15:44;;;;;;;36.17;22.52;;;21.30;99.90;;;;;;6166753;28;20299;-66
2022/08/18 01:22:19;;;;;;;29.92;20.58;;;21.20;99.90;;;;;;6167094;28;20294;-66
2022/08/18 01:28:49;;;;;;;38.63;22.75;;;21.20;99.90;;;;;;6166625;28;20294;-65
2022/08/18 01:31:54;;;;;;;34.92;21.63;;;21.20;99.90;;;;;;6166857;28;20278;-66
2022/08/18 01:35:00;;;;;;;34.15;22.52;;;21.10;99.90;;;;;;6166046;28;20298;-65
2022/08/18 01:38:06;;;;;;;35.53;22.20;;;21.10;99.90;;;;;;6165842;28;20319;-65
2022/08/18 01:41:12;;;;;;;27.63;21.77;;;21.00;99.90;;;;;;6166749;28;20295;-66
2022/08/18 01:44:33;;;;;;;31.48;21.67;;;21.00;99.90;;;;;;6166348;28;20302;-65
2022/08/18 01:47:40;;;;;;;31.02;22.50;;;21.10;99.90;;;;;;6166241;28;20274;-65
2022/08/18 01:51:05;;;;;;;29.05;21.77;;;21.00;99.90;;;;;;6165897;29;20368;-66
2022/08/18 01:54:14;;;;;;;29.35;20.88;;;21.00;99.90;;;;;;6165910;28;20295;-66
2022/08/18 01:57:21;;;;;;;26.63;20.88;;;20.90;99.90;;;;;;6166570;28;20275;-66
2022/08/18 02:00:28;;;;;;;36.30;22.10;;;20.90;99.90;;;;;;6165510;28;20493;-66
2022/08/18 02:03:36;;;;;;;29.40;20.45;;;20.90;99.90;;;;;;6165622;28;20299;-65
2022/08/18 02:06:42;;;;;;;30.08;20.95;;;20.90;99.90;;;;;;6165622;28;20274;-66
2022/08/18 02:09:51;;;;;;;27.75;21.40;;;20.90;99.90;;;;;;6165690;28;20303;-65
2022/08/18 02:12:59;;;;;;;27.13;20.77;;;20.90;99.90;;;;;;6187996;28;20270;-66
2022/08/18 02:16:05;;;;;;;25.58;20.60;;;20.80;99.90;;;;;;6190002;28;20270;-66
2022/08/18 02:19:11;;;;;;;30.15;20.60;;;20.90;99.90;;;;;;6189306;28;20455;-66
2022/08/18 02:22:20;;;;;;;31.30;21.67;;;20.90;99.90;;;;;;6189987;28;20293;-66
2022/08/18 02:25:26;;;;;;;26.40;21.08;;;20.90;99.90;;;;;;6189360;28;20302;-66
2022/08/18 02:28:32;;;;;;;28.02;21.75;;;20.80;99.90;;;;;;6188834;28;20601;-66
2022/08/18 02:31:38;;;;;;;28.55;22.02;;;20.80;99.90;;;;;;6189206;28;20274;-66
2022/08/18 02:34:43;;;;;;;33.53;22.58;;;20.80;99.90;;;;;;6203855;28;20298;-66
2022/08/18 02:37:48;;;;;;;26.33;21.92;;;20.70;99.90;;;;;;6189033;28;20274;-66
2022/08/18 02:40:56;;;;;;;29.65;22.55;;;20.70;99.90;;;;;;6189099;28;20297;-66
2022/08/18 02:44:03;;;;;;;31.35;22.80;;;20.70;99.90;;;;;;6188663;28;20304;-65
2022/08/18 02:47:09;;;;;;;32.05;21.98;;;20.70;99.90;;;;;;6188786;28;20477;-65
2022/08/18 02:50:15;;;;;;;31.45;22.02;;;20.70;99.90;;;;;;6188732;28;20298;-66
2022/08/18 02:53:21;;;;;;;30.55;21.88;;;20.70;99.90;;;;;;6188548;28;20325;-65
2022/08/18 02:56:29;;;;;;;26.98;21.05;;;20.70;99.90;;;;;;6189030;28;20274;-65
2022/08/18 02:59:47;;;;;;;30.77;22.00;;;20.70;99.90;;;;;;6188152;28;20293;-65
2022/08/18 03:02:53;;;;;;;30.25;21.75;;;20.60;99.90;;;;;;6183945;28;20289;-66
2022/08/18 03:05:58;;;;;;;29.83;20.02;;;20.70;99.90;;;;;;6179894;28;20289;-65
2022/08/18 03:09:05;;;;;;;30.17;20.80;;;20.60;99.90;;;;;;6165327;28;20298;-65
2022/08/18 03:12:11;;;;;;;27.13;21.15;;;20.60;99.90;;;;;;6178342;28;20287;-65
2022/08/18 03:15:18;;;;;;;27.67;21.85;;;20.60;99.90;;;;;;6188265;28;20297;-66
2022/08/18 03:18:23;;;;;;;26.85;21.65;;;20.60;99.90;;;;;;6187280;28;20290;-66
2022/08/18 03:21:30;;;;;;;31.27;22.40;;;20.60;99.90;;;;;;6168424;28;20267;-66
2022/08/18 03:24:36;;;;;;;23.65;20.92;;;20.70;99.90;;;;;;6163712;28;20306;-66
2022/08/18 03:27:41;;;;;;;29.75;22.58;;;20.60;99.90;;;;;;6164503;29;20279;-66
2022/08/18 03:30:48;;;;;;;30.63;23.00;;;20.70;99.90;;;;;;6163892;29;20297;-66
2022/08/18 03:33:54;;;;;;;26.17;22.02;;;20.70;99.90;;;;;;6163977;28;20298;-65
2022/08/18 03:37:03;;;;;;;27.27;22.02;;;20.70;99.90;;;;;;6171608;28;20453;-66
2022/08/18 03:40:10;;;;;;;24.65;20.98;;;20.70;99.90;;;;;;6187704;28;20318;-66
2022/08/18 03:43:16;;;;;;;27.58;21.15;;;20.70;99.90;;;;;;6187574;28;20566;-66
2022/08/18 03:46:44;;;;;;;26.58;20.55;;;20.70;99.90;;;;;;6188037;28;20273;-66
2022/08/18 03:49:49;;;;;;;22.55;19.85;;;20.70;99.90;;;;;;6187476;28;20297;-66
2022/08/18 03:52:58;;;;;;;22.35;20.00;;;20.70;99.90;;;;;;6187417;28;20277;-66
2022/08/18 03:56:08;;;;;;;23.85;20.73;;;20.70;99.90;;;;;;6187813;28;20274;-66
2022/08/18 03:59:17;;;;;;;22.77;20.25;;;20.60;99.90;;;;;;6187585;28;20302;-67
2022/08/18 04:02:24;;;;;;;24.80;20.25;;;20.70;99.90;;;;;;6188177;28;20302;-66
2022/08/18 04:05:30;;;;;;;23.98;20.55;;;20.60;99.90;;;;;;6187422;28;20302;-65
2022/08/18 04:08:36;;;;;;;28.17;21.15;;;20.60;99.90;;;;;;6187301;28;20314;-65
2022/08/18 04:11:42;;;;;;;21.17;18.98;;;20.70;99.90;;;;;;6175865;28;20292;-66
2022/08/18 04:14:50;;;;;;;22.17;19.02;;;20.60;99.90;;;;;;6162940;28;20298;-65
2022/08/18 04:18:02;;;;;;;22.73;18.80;;;20.60;99.90;;;;;;6163146;28;20270;-66
2022/08/18 04:21:12;;;;;;;23.75;18.98;;;20.70;99.90;;;;;;6163760;28;20274;-66
2022/08/18 04:24:17;;;;;;;23.50;19.50;;;20.60;99.90;;;;;;6161603;28;20298;-66
2022/08/18 04:27:22;;;;;;;21.77;18.50;;;20.70;99.90;;;;;;6163239;28;20302;-66
2022/08/18 04:30:28;;;;;;;19.40;17.27;;;20.70;99.90;;;;;;6167602;28;20294;-65
2022/08/18 04:33:35;;;;;;;24.85;17.40;;;20.60;99.90;;;;;;6167187;28;20303;-65
2022/08/18 04:36:41;;;;;;;20.05;17.95;;;20.70;99.90;;;;;;6168261;28;20270;-66
2022/08/18 04:39:47;;;;;;;19.35;17.35;;;20.70;99.90;;;;;;6167978;28;20298;-66
2022/08/18 04:42:53;;;;;;;18.73;16.42;;;20.70;99.90;;;;;;6167310;28;20283;-67
2022/08/18 04:46:00;;;;;;;19.13;17.20;;;20.80;99.90;;;;;;6167931;28;20322;-65
2022/08/18 04:49:09;;;;;;;24.40;16.70;;;20.80;99.90;;;;;;6167859;28;20302;-66
2022/08/18 04:55:48;;;;;;;18.35;16.50;;;20.90;99.90;;;;;;6167317;28;20302;-66
2022/08/18 04:58:55;;;;;;;17.60;15.93;;;20.90;99.90;;;;;;6166744;28;20294;-67
2022/08/18 05:02:04;;;;;;;18.27;16.13;;;21.00;99.90;;;;;;6167254;29;20310;-66
2022/08/18 05:05:11;;;;;;;19.67;17.13;;;20.90;99.90;;;;;;6166987;28;20298;-66
2022/08/18 05:08:16;;;;;;;20.80;15.93;;;21.00;99.90;;;;;;6167108;28;20298;-66
2022/08/18 05:11:24;;;;;;;17.38;15.63;;;21.10;99.90;;;;;;6176327;28;20545;-66
2022/08/18 05:14:30;;;;;;;17.45;15.05;;;21.10;99.90;;;;;;6191015;28;20349;-66
2022/08/18 05:17:38;;;;;;;15.48;13.88;;;21.10;99.90;;;;;;6190857;28;20275;-66
2022/08/18 05:20:46;;;;;;;13.80;12.32;;;21.20;99.90;;;;;;6190553;28;20301;-66
2022/08/18 05:23:53;;;;;;;13.27;12.07;;;21.20;99.90;;;;;;6190619;28;20298;-66
2022/08/18 05:26:58;;;;;;;11.93;10.73;;;21.20;99.90;;;;;;6190631;28;20357;-67
2022/08/18 05:30:05;;;;;;;18.83;11.45;;;21.10;99.90;;;;;;6190309;28;20566;-66
2022/08/18 05:33:15;;;;;;;16.23;12.05;;;21.20;99.90;;;;;;6190625;28;20294;-65
2022/08/18 05:36:37;;;;;;;12.23;11.05;;;21.30;99.90;;;;;;6190787;28;20346;-66
2022/08/18 05:39:53;;;;;;;10.95;10.05;;;21.40;99.90;;;;;;6189316;28;20298;-66
2022/08/18 05:43:01;;;;;;;11.30;10.32;;;21.40;99.90;;;;;;6189713;28;20581;-65
2022/08/18 05:46:07;;;;;;;12.18;10.02;;;21.40;99.90;;;;;;6190105;28;20402;-66
2022/08/18 05:49:13;;;;;;;11.27;10.27;;;21.40;99.90;;;;;;6189828;28;20297;-65
2022/08/18 05:52:30;;;;;;;11.82;10.60;;;21.40;99.90;;;;;;6190456;28;20561;-65
2022/08/18 05:59:03;;;;;;;11.85;10.73;;;21.40;99.90;;;;;;6189521;28;20298;-66
2022/08/18 06:02:14;;;;;;;13.38;11.02;;;21.40;99.90;;;;;;6189694;28;20306;-66
2022/08/18 06:05:24;;;;;;;11.48;10.43;;;21.50;99.90;;;;;;6189696;28;20297;-66
2022/08/18 06:08:38;;;;;;;10.43;9.52;;;21.40;99.90;;;;;;6189765;28;20289;-66
2022/08/18 06:11:43;;;;;;;10.63;9.73;;;21.40;99.90;;;;;;6177247;28;20266;-65
2022/08/18 06:14:49;;;;;;;11.13;9.88;;;21.40;99.90;;;;;;6165267;28;20513;-65
2022/08/18 06:18:28;;;;;;;10.85;9.88;;;21.50;99.90;;;;;;6165014;28;20275;-66
2022/08/18 06:21:42;;;;;;;11.35;10.45;;;21.50;99.90;;;;;;6165457;29;20463;-66
2022/08/18 06:24:56;;;;;;;11.10;10.18;;;21.60;99.90;;;;;;6164912;28;20302;-67
2022/08/18 06:28:07;;;;;;;11.63;10.40;;;21.70;99.90;;;;;;6164793;28;20279;-66
2022/08/18 06:31:18;;;;;;;10.75;9.85;;;21.70;99.90;;;;;;6165292;28;20276;-65
2022/08/18 06:34:32;;;;;;;11.05;10.18;;;21.80;99.90;;;;;;6164958;28;20512;-65
2022/08/18 06:41:13;;;;;;;10.68;9.75;;;21.70;99.90;;;;;;6163821;28;20278;-67
2022/08/18 06:44:43;;;;;;;11.40;10.50;;;21.80;99.90;;;;;;6164888;28;20298;-66
2022/08/18 06:47:58;;;;;;;9.70;8.75;;;21.90;99.90;;;;;;6164840;28;20458;-67
2022/08/18 06:51:05;;;;;;;10.90;9.00;;;22.00;99.90;;;;;;6164913;28;20293;-65
2022/08/18 06:54:28;;;;;;;9.05;8.20;;;22.10;99.90;;;;;;6164310;28;20334;-66
2022/08/18 06:57:37;;;;;;;8.82;8.20;;;22.20;99.90;;;;;;6164958;29;20279;-66
2022/08/18 07:00:55;;;;;;;9.07;8.25;;;22.30;99.90;;;;;;6164320;28;20315;-66
2022/08/18 07:04:01;;;;;;;8.52;7.82;;;22.30;99.90;;;;;;6164503;28;20298;-66
2022/08/18 07:07:31;;;;;;;7.85;7.35;;;22.50;99.90;;;;;;6164824;29;20295;-66
2022/08/18 07:10:46;;;;;;;8.50;7.72;;;22.60;99.90;;;;;;6168391;28;20293;-66
2022/08/18 07:13:56;;;;;;;8.52;7.70;;;22.70;99.90;;;;;;6188026;28;20317;-65
2022/08/18 07:17:24;;;;;;;8.95;7.90;;;22.60;99.90;;;;;;6188549;28;20273;-66
2022/08/18 07:20:52;;;;;;;8.10;7.53;;;22.80;99.90;;;;;;6187318;28;20298;-66
2022/08/18 07:24:01;;;;;;;8.45;7.72;;;22.70;99.90;;;;;;6187832;28;20309;-64
2022/08/18 07:27:44;;;;;;;6.80;6.43;;;22.80;99.90;;;;;;6187677;28;20289;-65
2022/08/18 07:30:51;;;;;;;7.63;7.05;;;22.80;99.90;;;;;;6186953;28;20282;-66
2022/08/18 07:34:24;;;;;;;7.00;6.50;;;22.80;99.90;;;;;;6187632;28;20254;-65
2022/08/18 07:37:35;;;;;;;7.55;7.07;;;22.90;99.90;;;;;;6187809;28;20278;-65
2022/08/18 07:40:47;;;;;;;7.95;7.22;;;22.90;99.90;;;;;;6187441;28;20623;-65
2022/08/18 07:44:03;;;;;;;6.72;6.32;;;23.10;99.90;;;;;;6187329;28;20293;-65
2022/08/18 07:47:20;;;;;;;6.78;6.30;;;22.90;99.90;;;;;;6187533;28;20475;-66
2022/08/18 07:50:27;;;;;;;7.13;6.63;;;23.00;99.90;;;;;;6187356;28;20478;-65
2022/08/18 07:53:59;;;;;;;6.72;6.40;;;22.80;99.90;;;;;;6187308;28;20302;-65
2022/08/18 07:57:10;;;;;;;7.57;6.95;;;23.00;99.90;;;;;;6187689;28;20277;-65
2022/08/18 08:00:24;;;;;;;7.32;6.95;;;22.90;99.90;;;;;;6186672;28;20313;-65
2022/08/18 08:03:59;;;;;;;7.28;6.68;;;22.80;99.90;;;;;;6186542;28;20491;-68
2022/08/18 08:07:15;;;;;;;7.15;6.70;;;22.80;99.90;;;;;;6187648;28;20298;-66
2022/08/18 08:10:35;;;;;;;7.55;7.05;;;22.80;99.90;;;;;;6184746;28;20297;-66
2022/08/18 08:13:52;;;;;;;7.43;6.80;;;22.90;99.90;;;;;;6161442;28;20298;-66
2022/08/18 08:17:10;;;;;;;6.80;6.30;;;23.00;99.90;;;;;;6163091;29;20506;-66
2022/08/18 08:20:25;;;;;;;6.70;6.20;;;23.00;99.90;;;;;;6162888;28;20310;-66
2022/08/18 08:23:48;;;;;;;6.80;6.20;;;23.00;99.90;;;;;;6177381;28;20298;-65
2022/08/18 08:27:00;;;;;;;33.60;24.73;;;23.10;99.90;;;;;;6163478;29;20314;-66
2022/08/18 08:30:11;;;;;;;10.90;10.05;;;23.10;99.90;;;;;;6162977;28;20298;-65
2022/08/18 08:33:23;;;;;;;10.27;9.52;;;23.00;99.90;;;;;;6163099;28;20589;-65
2022/08/18 08:36:33;;;;;;;11.27;10.32;;;23.00;99.90;;;;;;6162726;28;20278;-66
2022/08/18 08:39:43;;;;;;;7.70;7.30;;;23.10;99.90;;;;;;6162142;28;20299;-66
2022/08/18 08:42:55;;;;;;;7.72;7.20;;;23.10;99.90;;;;;;6162668;28;20340;-67
2022/08/18 08:46:08;;;;;;;8.13;7.13;;;23.20;99.90;;;;;;6162755;29;20274;-66
2022/08/18 08:49:26;;;;;;;7.90;7.40;;;23.20;99.90;;;;;;6162316;28;20306;-66
2022/08/18 08:52:41;;;;;;;8.02;7.53;;;23.20;99.90;;;;;;6162922;28;20279;-66
2022/08/18 08:55:49;;;;;;;7.18;6.47;;;23.30;99.90;;;;;;6162640;28;20377;-66
2022/08/18 08:58:59;;;;;;;8.00;7.15;;;23.30;99.90;;;;;;6162669;28;20297;-66
2022/08/18 09:02:23;;;;;;;6.45;6.22;;;23.40;99.90;;;;;;6162426;29;20487;-68
2022/08/18 09:06:00;;;;;;;7.63;7.18;;;23.40;99.90;;;;;;6162220;28;20291;-65
2022/08/18 09:09:31;;;;;;;8.55;7.68;;;23.50;99.90;;;;;;6162255;28;20601;-65
2022/08/18 09:12:52;;;;;;;7.57;7.07;;;23.50;99.90;;;;;;6182134;28;20453;-65
2022/08/18 09:16:12;;;;;;;7.53;6.82;;;23.50;99.90;;;;;;6188196;28;20277;-65
2022/08/18 09:20:03;;;;;;;7.32;6.93;;;23.60;99.90;;;;;;6190559;28;20613;-65
2022/08/18 09:23:13;;;;;;;7.95;7.38;;;23.70;99.90;;;;;;6184430;28;20581;-66
2022/08/18 09:26:40;;;;;;;7.95;7.22;;;23.80;99.90;;;;;;6190798;28;20442;-66
2022/08/18 09:29:52;;;;;;;7.25;6.95;;;23.80;99.90;;;;;;6190371;28;20301;-65
2022/08/18 09:33:09;;;;;;;7.38;6.85;;;23.90;99.90;;;;;;6190339;28;20274;-65
2022/08/18 09:36:42;;;;;;;9.02;8.27;;;23.90;99.90;;;;;;6190398;28;20293;-65
2022/08/18 09:43:34;;;;;;;7.72;7.30;;;24.00;99.90;;;;;;6189746;28;20318;-65
2022/08/18 09:46:59;;;;;;;8.43;7.68;;;24.00;99.90;;;;;;6190099;28;20274;-65
2022/08/18 09:50:55;;;;;;;8.05;7.63;;;24.00;99.90;;;;;;6189826;28;20302;-67
2022/08/18 09:54:16;;;;;;;8.80;7.45;;;24.00;99.90;;;;;;6189462;28;20298;-66
2022/08/18 09:57:43;;;;;;;8.60;7.90;;;24.10;99.90;;;;;;6190005;28;20585;-65
2022/08/18 10:04:29;;;;;;;8.40;7.80;;;24.10;99.90;;;;;;6331387;27;20799;-64
2022/08/18 10:07:36;;;;;;;11.73;8.10;;;24.20;99.90;;;;;;6282170;28;20590;-66
2022/08/18 10:10:52;;;;;;;9.05;8.25;;;24.30;99.90;;;;;;6306074;28;20481;-64
2022/08/18 10:14:34;;;;;;;8.43;7.80;;;24.30;99.90;;;;;;6306376;28;20326;-65
2022/08/18 10:17:50;;;;;;;8.30;7.50;;;24.40;99.90;;;;;;6306580;28;20275;-64
2022/08/18 10:21:11;;;;;;;8.52;7.82;;;24.50;99.90;;;;;;6305602;28;20456;-65
2022/08/18 10:24:18;;;;;;;8.57;7.85;;;24.60;99.90;;;;;;6294199;28;20310;-67
2022/08/18 10:27:51;;;;;;;12.43;8.48;;;24.70;99.90;;;;;;6282308;28;20496;-65
2022/08/18 10:31:06;;;;;;;9.13;8.43;;;24.70;99.90;;;;;;6280941;28;20279;-66
2022/08/18 10:34:40;;;;;;;8.20;7.50;;;24.70;99.90;;;;;;6293144;28;20319;-66
2022/08/18 10:37:58;;;;;;;8.30;7.57;;;24.80;99.90;;;;;;6304017;28;20270;-65
2022/08/18 10:41:08;;;;;;;10.60;7.43;;;24.90;99.90;;;;;;6282020;28;20577;-64
2022/08/18 10:44:22;;;;;;;8.65;8.05;;;24.90;99.90;;;;;;6293652;28;20302;-65
2022/08/18 10:48:11;;;;;;;8.50;7.70;;;25.10;99.90;;;;;;6305441;28;20526;-65
2022/08/18 10:52:20;;;;;;;8.45;7.75;;;25.00;99.90;;;;;;6306045;28;20266;-65
2022/08/18 10:55:43;;;;;;;10.80;7.50;;;25.10;99.90;;;;;;6270889;28;20610;-66
2022/08/18 10:59:10;;;;;;;8.57;7.30;;;25.20;99.90;;;;;;6289925;28;20298;-65
2022/08/18 11:02:44;;;;;;;11.07;7.38;;;25.20;99.90;;;;;;6305075;28;20299;-65
2022/08/18 11:06:03;;;;;;;7.93;7.22;;;25.20;99.90;;;;;;6304796;28;20370;-66
2022/08/18 11:09:10;;;;;;;8.20;7.70;;;25.20;99.90;;;;;;6293921;28;20295;-66
2022/08/18 11:12:53;;;;;;;8.23;7.45;;;25.20;99.50;;;;;;6280576;28;20311;-65
2022/08/18 11:16:06;;;;;;;8.23;7.53;;;25.30;99.80;;;;;;6287365;28;20282;-65
2022/08/18 11:19:19;;;;;;;8.25;7.47;;;25.30;99.80;;;;;;6338182;28;20414;-65
2022/08/18 11:22:26;;;;;;;7.78;7.03;;;25.30;99.90;;;;;;6338769;28;20275;-67
2022/08/18 11:25:40;;;;;;;8.48;7.70;;;25.30;99.80;;;;;;6338027;28;20314;-65
2022/08/18 11:28:47;;;;;;;9.45;8.10;;;25.20;99.80;;;;;;6338253;28;20289;-65
2022/08/18 11:31:57;;;;;;;7.93;7.50;;;25.30;99.90;;;;;;6338571;28;20270;-65
2022/08/18 11:35:15;;;;;;;8.60;7.70;;;25.40;99.70;;;;;;6338305;28;20302;-65
2022/08/18 11:38:22;;;;;;;12.07;9.07;;;25.50;99.90;;;;;;6337752;28;20289;-65
2022/08/18 11:41:28;;;;;;;9.00;8.48;;;25.60;99.90;;;;;;6338574;28;20274;-66
2022/08/18 11:45:05;;;;;;;13.02;9.00;;;25.70;99.90;;;;;;6337677;28;20302;-65
2022/08/18 11:48:21;;;;;;;11.07;8.77;;;25.80;99.90;;;;;;6337650;28;20293;-65
2022/08/18 11:51:34;;;;;;;11.00;10.07;;;25.80;99.90;;;;;;6338036;28;20266;-65
2022/08/18 11:54:43;;;;;;;10.00;9.10;;;25.80;99.90;;;;;;6337586;28;20306;-65
2022/08/18 11:57:58;;;;;;;9.93;9.00;;;25.90;99.90;;;;;;6337379;28;20561;-66
2022/08/18 12:01:07;;;;;;;13.02;9.10;;;25.90;99.90;;;;;;6337674;28;20265;-64
2022/08/18 12:04:23;;;;;;;9.77;9.10;;;26.00;99.90;;;;;;6312570;28;20294;-65
2022/08/18 12:07:32;;;;;;;9.95;8.98;;;26.00;99.90;;;;;;6312435;28;20550;-65
2022/08/18 12:10:37;;;;;;;11.13;8.73;;;26.00;99.90;;;;;;6311613;28;20294;-65
2022/08/18 12:13:49;;;;;;;9.68;8.77;;;26.00;99.90;;;;;;6311584;28;20298;-65
2022/08/18 12:16:57;;;;;;;11.18;9.05;;;26.00;99.90;;;;;;6312370;28;20274;-65
2022/08/18 12:20:07;;;;;;;12.60;9.48;;;25.90;99.90;;;;;;6311970;28;20298;-65
2022/08/18 12:23:15;;;;;;;9.50;8.80;;;26.00;99.90;;;;;;6311318;28;20299;-65
2022/08/18 12:26:21;;;;;;;9.90;8.77;;;26.10;99.90;;;;;;6311655;28;20270;-66
2022/08/18 12:29:42;;;;;;;12.85;8.68;;;26.10;99.90;;;;;;6311235;28;20294;-65
2022/08/18 12:32:49;;;;;;;9.73;9.02;;;26.20;99.90;;;;;;6311539;28;20266;-65
2022/08/18 12:36:13;;;;;;;9.18;8.32;;;26.20;99.90;;;;;;6310743;28;20291;-65
2022/08/18 12:39:19;;;;;;;10.15;8.30;;;26.10;99.90;;;;;;6310988;28;20610;-65
2022/08/18 12:42:26;;;;;;;18.15;9.50;;;26.20;99.90;;;;;;6311601;28;20275;-67
2022/08/18 12:45:36;;;;;;;9.10;8.40;;;26.10;99.90;;;;;;6311049;28;20302;-66
2022/08/18 12:48:44;;;;;;;9.13;8.52;;;26.30;99.90;;;;;;6310615;28;20290;-66
2022/08/18 12:51:53;;;;;;;15.75;8.80;;;26.30;99.30;;;;;;6311763;28;20287;-66
2022/08/18 12:55:00;;;;;;;9.00;8.38;;;26.30;99.70;;;;;;6311055;28;20618;-66
2022/08/18 12:58:07;;;;;;;9.13;8.30;;;26.40;99.30;;;;;;6311129;28;20270;-65
2022/08/18 13:01:12;;;;;;;9.00;8.48;;;26.40;99.10;;;;;;6303263;28;20450;-65
2022/08/18 13:04:23;;;;;;;19.30;8.38;;;26.50;99.10;;;;;;6310463;28;20294;-65
2022/08/18 13:07:31;;;;;;;10.40;8.70;;;26.60;98.40;;;;;;6311629;28;20274;-65
2022/08/18 13:10:37;;;;;;;8.82;7.97;;;26.40;98.10;;;;;;6325921;28;20474;-66
2022/08/18 13:13:52;;;;;;;16.05;8.60;;;26.40;98.40;;;;;;6310941;28;20302;-65
2022/08/18 13:17:00;;;;;;;9.15;8.45;;;26.40;99.20;;;;;;6310926;28;20386;-66
2022/08/18 13:20:12;;;;;;;9.30;8.48;;;26.30;99.10;;;;;;6310300;28;20294;-65
2022/08/18 13:23:17;;;;;;;14.10;9.10;;;26.20;99.90;;;;;;6309889;28;20286;-65
2022/08/18 13:26:31;;;;;;;10.80;8.30;;;26.20;99.90;;;;;;6310700;28;20546;-66
2022/08/18 13:29:36;;;;;;;11.20;10.02;;;26.10;99.90;;;;;;6310065;28;20294;-66
2022/08/18 13:32:46;;;;;;;10.70;9.25;;;26.20;99.90;;;;;;6310579;28;20270;-66
2022/08/18 13:36:08;;;;;;;10.75;9.85;;;26.00;99.90;;;;;;6309082;28;20278;-66
2022/08/18 13:39:14;;;;;;;12.27;10.02;;;25.90;99.90;;;;;;6309986;28;20294;-65
2022/08/18 13:42:19;;;;;;;11.13;10.13;;;25.80;99.90;;;;;;6310194;28;20275;-66
2022/08/18 13:45:33;;;;;;;13.27;10.63;;;25.60;99.90;;;;;;6309848;28;20294;-66
2022/08/18 13:48:41;;;;;;;12.43;10.43;;;25.60;99.90;;;;;;6310043;28;20302;-65
2022/08/18 13:51:50;;;;;;;11.27;10.32;;;25.60;99.90;;;;;;6310273;28;20269;-65
2022/08/18 13:54:55;;;;;;;12.30;10.48;;;25.40;99.90;;;;;;6309575;28;20302;-66
2022/08/18 13:58:05;;;;;;;14.90;10.93;;;25.50;99.90;;;;;;6309870;28;20266;-66
2022/08/18 14:01:25;;;;;;;12.68;11.38;;;25.30;99.90;;;;;;6292262;28;20275;-66
2022/08/18 14:04:53;;;;;;;11.35;10.30;;;25.30;99.90;;;;;;6309595;28;20298;-66
2022/08/18 14:08:00;;;;;;;12.95;11.00;;;25.30;99.90;;;;;;6309612;28;20267;-67
2022/08/18 14:11:06;;;;;;;12.20;11.00;;;25.30;99.90;;;;;;6310249;28;20259;-66
2022/08/18 14:14:12;;;;;;;11.98;10.98;;;25.20;99.90;;;;;;6309579;28;20471;-66
2022/08/18 14:17:19;;;;;;;11.25;10.18;;;25.20;99.90;;;;;;6310107;28;20562;-66
2022/08/18 14:27:18;;;;;;;17.95;12.02;;;25.20;99.90;;;;;;6310027;28;20581;-66
2022/08/18 14:30:24;;;;;;;12.18;11.07;;;25.10;99.90;;;;;;6309195;28;20299;-66
2022/08/18 14:33:31;;;;;;;12.85;11.50;;;25.10;99.90;;;;;;6308966;28;20290;-66
2022/08/18 14:36:55;;;;;;;13.93;12.20;;;25.30;99.90;;;;;;6309528;28;20298;-65
2022/08/18 14:40:02;;;;;;;13.15;11.82;;;25.20;99.90;;;;;;6309097;28;20302;-65
2022/08/18 14:43:09;;;;;;;12.48;11.43;;;25.10;99.90;;;;;;6308712;28;20302;-65
2022/08/18 14:46:15;;;;;;;13.23;11.20;;;25.10;99.90;;;;;;6309423;28;20286;-65
2022/08/18 14:49:21;;;;;;;12.63;11.60;;;25.10;99.90;;;;;;6310662;28;20476;-66
2022/08/18 14:52:32;;;;;;;13.25;11.45;;;25.00;99.90;;;;;;6314068;28;20270;-65
2022/08/18 14:55:39;;;;;;;12.60;11.35;;;25.00;99.90;;;;;;6313883;28;20298;-65
2022/08/18 14:58:44;;;;;;;11.55;10.70;;;25.10;99.90;;;;;;6313592;28;20343;-66
2022/08/18 15:01:50;;;;;;;11.55;10.68;;;25.10;99.90;;;;;;6318283;28;20305;-66
2022/08/18 15:04:57;;;;;;;11.88;10.88;;;24.90;99.90;;;;;;6338537;28;20467;-66
2022/08/18 15:08:03;;;;;;;11.65;10.75;;;24.90;99.90;;;;;;6337807;28;20541;-66
2022/08/18 15:11:11;;;;;;;12.32;10.93;;;24.80;99.90;;;;;;6331369;28;20263;-66
2022/08/18 15:14:19;;;;;;;11.55;10.63;;;24.80;99.90;;;;;;6312835;28;20298;-66
2022/08/18 15:17:30;;;;;;;12.55;11.45;;;24.70;99.90;;;;;;6313153;28;20453;-66
2022/08/18 15:27:31;;;;;;;11.40;10.52;;;24.80;99.90;;;;;;6313010;28;20324;-66
2022/08/18 15:30:49;;;;;;;12.15;10.95;;;24.80;99.90;;;;;;6312754;28;20473;-66
2022/08/18 15:33:55;;;;;;;11.38;10.18;;;24.70;99.90;;;;;;6312757;28;20314;-66
2022/08/18 15:37:01;;;;;;;11.15;10.15;;;24.70;99.90;;;;;;6312937;28;20279;-66
2022/08/18 15:40:19;;;;;;;10.88;10.07;;;24.60;99.90;;;;;;6312694;28;20294;-66
2022/08/18 15:43:36;;;;;;;10.90;9.80;;;24.60;99.90;;;;;;6312291;28;20559;-65
2022/08/18 15:46:52;;;;;;;11.18;10.10;;;24.50;99.90;;;;;;6295054;28;20290;-66
2022/08/18 15:49:57;;;;;;;10.77;9.65;;;24.60;99.90;;;;;;6312275;28;20294;-64
2022/08/18 15:53:05;;;;;;;10.27;9.40;;;24.50;99.90;;;;;;6311926;28;20291;-67
2022/08/18 15:56:15;;;;;;;14.07;9.73;;;24.40;99.90;;;;;;6312594;28;20294;-66
2022/08/18 15:59:26;;;;;;;11.07;10.27;;;24.40;99.90;;;;;;6312336;28;20298;-66
2022/08/18 16:02:50;;;;;;;16.23;10.35;;;24.30;99.90;;;;;;6312335;28;20299;-66
2022/08/18 16:05:56;;;;;;;10.30;9.57;;;24.30;99.90;;;;;;6311931;28;20279;-66
2022/08/18 16:09:02;;;;;;;11.00;10.02;;;24.30;99.90;;;;;;6312119;28;20302;-66
2022/08/18 16:12:09;;;;;;;12.07;10.50;;;24.20;99.90;;;;;;6287015;28;20259;-65
2022/08/18 16:15:18;;;;;;;11.57;10.68;;;24.10;99.90;;;;;;6304152;28;20294;-65
2022/08/18 16:18:26;;;;;;;11.70;10.38;;;24.10;99.90;;;;;;6311837;28;20298;-65
2022/08/18 16:21:31;;;;;;;11.70;10.25;;;24.10;99.90;;;;;;6312322;28;20562;-66
2022/08/18 16:24:36;;;;;;;11.13;10.13;;;24.00;99.90;;;;;;6311897;28;20295;-66
2022/08/18 16:27:41;;;;;;;10.90;9.93;;;24.00;99.90;;;;;;6312383;28;20294;-65
2022/08/18 16:30:48;;;;;;;11.05;10.10;;;24.10;99.90;;;;;;6311510;28;20298;-65
2022/08/18 16:33:55;;;;;;;11.73;10.40;;;24.00;99.90;;;;;;6311833;28;20298;-66
2022/08/18 16:37:00;;;;;;;11.63;10.55;;;23.80;99.90;;;;;;6311841;28;20274;-66
2022/08/18 16:40:07;;;;;;;12.07;10.95;;;23.80;99.90;;;;;;6311331;28;20298;-66
2022/08/18 16:43:13;;;;;;;11.60;10.60;;;23.80;99.90;;;;;;6311288;28;20371;-66
2022/08/18 16:46:24;;;;;;;13.23;11.93;;;23.70;99.90;;;;;;6311963;28;20270;-65
2022/08/18 16:49:29;;;;;;;12.63;11.43;;;23.70;99.90;;;;;;6311289;28;20322;-67
2022/08/18 16:52:35;;;;;;;16.83;12.25;;;23.60;99.90;;;;;;6311899;28;20287;-66
2022/08/18 16:55:42;;;;;;;15.02;12.00;;;23.50;99.90;;;;;;6311216;28;20593;-66
2022/08/18 17:05:47;;;;;;;13.95;12.65;;;23.50;99.90;;;;;;6334702;28;20294;-66